createdAt,value
2023-01-28T00:00:49.306Z,3.57
2023-01-28T00:03:16.036Z,3.55
2023-01-28T00:05:43.160Z,3.59
2023-01-28T00:08:10.330Z,3.53
2023-01-28T00:10:39.715Z,3.51
2023-01-28T00:13:14.680Z,3.49
2023-01-28T00:15:41.735Z,3.46
2023-01-28T00:18:08.259Z,3.48
2023-01-28T00:20:35.601Z,3.49
2023-01-28T00:23:02.154Z,3.50
2023-01-28T00:25:28.626Z,3.52
2023-01-28T00:27:55.685Z,3.48
2023-01-28T00:30:22.138Z,3.41
2023-01-28T00:32:48.599Z,3.29
2023-01-28T00:35:16.041Z,3.27
2023-01-28T00:37:46.019Z,3.29
2023-01-28T00:40:12.954Z,3.19
2023-01-28T00:42:39.417Z,3.22
2023-01-28T00:45:06.324Z,3.23
2023-01-28T00:47:32.782Z,3.21
2023-01-28T00:49:59.248Z,3.19
2023-01-28T00:52:26.077Z,3.23
2023-01-28T00:54:52.644Z,3.27
2023-01-28T00:57:21.589Z,3.25
2023-01-28T00:59:48.034Z,3.28
2023-01-28T01:02:14.586Z,3.27
2023-01-28T01:04:41.327Z,3.28
2023-01-28T01:07:07.996Z,3.34
2023-01-28T01:09:34.504Z,3.38
2023-01-28T01:12:01.349Z,3.40
2023-01-28T01:14:27.867Z,3.43
2023-01-28T01:16:54.424Z,3.42
2023-01-28T01:19:21.491Z,3.43
2023-01-28T01:21:50.796Z,3.44
2023-01-28T01:24:17.657Z,3.43
2023-01-28T01:26:44.307Z,3.41
2023-01-28T01:29:10.874Z,3.41
2023-01-28T01:31:37.859Z,3.41
2023-01-28T01:34:04.749Z,3.43
2023-01-28T01:36:31.914Z,3.43
2023-01-28T01:38:58.479Z,3.47
2023-01-28T01:41:26.969Z,3.49
2023-01-28T01:43:59.948Z,3.35
2023-01-28T01:46:43.894Z,3.38
2023-01-28T01:49:19.433Z,3.35
2023-01-28T01:51:51.311Z,3.17
2023-01-28T01:54:19.680Z,3.06
2023-01-28T01:56:49.544Z,3.03
2023-01-28T01:59:22.395Z,2.98
2023-01-28T02:01:49.172Z,2.99
2023-01-28T02:04:18.396Z,2.85
2023-01-28T02:06:45.806Z,2.75
2023-01-28T02:09:42.156Z,2.69
2023-01-28T02:12:16.185Z,2.70
2023-01-28T02:14:48.492Z,2.70
2023-01-28T02:17:16.012Z,2.73
2023-01-28T02:19:58.098Z,2.64
2023-01-28T02:22:56.722Z,2.58
2023-01-28T02:25:29.374Z,2.58
2023-01-28T02:28:01.813Z,2.58
2023-01-28T02:30:35.249Z,2.58
2023-01-28T02:33:08.692Z,2.58
2023-01-28T02:35:46.054Z,2.56
2023-01-28T02:38:19.571Z,2.61
2023-01-28T02:41:05.804Z,2.59
2023-01-28T02:43:37.393Z,2.57
2023-01-28T02:46:37.978Z,2.58
2023-01-28T02:49:09.913Z,2.58
2023-01-28T02:52:52.545Z,2.55
2023-01-28T02:55:40.604Z,2.57
2023-01-28T02:58:32.749Z,2.65
2023-01-28T03:01:11.493Z,2.70
2023-01-28T03:03:40.874Z,2.55
2023-01-28T03:06:11.777Z,2.60
2023-01-28T03:09:11.946Z,2.61
2023-01-28T03:12:03.482Z,2.66
2023-01-28T03:14:50.903Z,2.61
2023-01-28T03:17:43.652Z,2.64
2023-01-28T03:20:29.563Z,2.70
2023-01-28T03:23:18.615Z,2.72
2023-01-28T03:26:10.171Z,2.73
2023-01-28T03:28:58.472Z,2.69
2023-01-28T03:31:44.920Z,2.76
2023-01-28T03:34:31.094Z,2.75
2023-01-28T03:36:58.175Z,2.68
2023-01-28T03:39:30.146Z,2.75
2023-01-28T03:42:12.632Z,2.76
2023-01-28T03:44:55.140Z,2.68
2023-01-28T03:47:27.677Z,2.67
2023-01-28T03:49:59.728Z,2.67
2023-01-28T03:52:30.232Z,2.70
2023-01-28T03:54:56.968Z,2.74
2023-01-28T03:57:26.450Z,2.66
2023-01-28T03:59:54.015Z,2.67
2023-01-28T04:02:22.129Z,2.68
2023-01-28T04:04:50.265Z,2.68
2023-01-28T04:07:17.343Z,2.70
2023-01-28T04:09:44.484Z,2.75
2023-01-28T04:12:11.460Z,2.68
2023-01-28T04:14:40.159Z,2.62
2023-01-28T04:17:09.677Z,2.65
2023-01-28T04:19:38.006Z,2.65
2023-01-28T04:22:10.460Z,2.68
2023-01-28T04:24:37.030Z,2.68
2023-01-28T04:27:03.675Z,2.69
2023-01-28T04:29:30.154Z,2.62
2023-01-28T04:31:57.033Z,2.59
2023-01-28T04:34:23.515Z,2.60
2023-01-28T04:36:50.121Z,2.60
2023-01-28T04:39:16.645Z,2.64
2023-01-28T04:41:43.111Z,2.67
2023-01-28T04:44:09.736Z,2.65
2023-01-28T04:46:39.157Z,2.64
2023-01-28T04:49:06.022Z,2.55
2023-01-28T04:51:32.560Z,2.54
2023-01-28T04:53:59.095Z,2.55
2023-01-28T04:56:25.645Z,2.40
2023-01-28T04:58:52.275Z,2.32
2023-01-28T05:01:18.870Z,2.30
2023-01-28T05:03:45.377Z,2.29
2023-01-28T05:06:11.843Z,2.27
2023-01-28T05:08:38.531Z,2.30
2023-01-28T05:11:05.237Z,2.33
2023-01-28T05:13:31.760Z,2.41
2023-01-28T05:15:58.685Z,2.36
2023-01-28T05:18:25.208Z,2.35
2023-01-28T05:20:51.688Z,2.29
2023-01-28T05:23:18.175Z,2.24
2023-01-28T05:25:45.391Z,2.25
2023-01-28T05:28:11.911Z,2.20
2023-01-28T05:30:40.333Z,2.25
2023-01-28T05:33:06.866Z,2.25
2023-01-28T05:35:34.102Z,2.25
2023-01-28T05:38:00.632Z,2.26
2023-01-28T05:40:27.083Z,2.27
2023-01-28T05:42:53.603Z,2.31
2023-01-28T05:45:20.341Z,2.35
2023-01-28T05:47:46.917Z,2.39
2023-01-28T05:50:15.012Z,2.43
2023-01-28T05:52:41.780Z,2.42
2023-01-28T05:55:09.128Z,2.42
2023-01-28T05:57:35.660Z,2.40
2023-01-28T06:00:02.421Z,2.31
2023-01-28T06:02:28.958Z,2.22
2023-01-28T06:04:55.460Z,2.24
2023-01-28T06:07:22.031Z,2.13
2023-01-28T06:09:48.628Z,2.17
2023-01-28T06:12:15.203Z,2.21
2023-01-28T06:14:42.472Z,2.27
2023-01-28T06:17:09.040Z,2.32
2023-01-28T06:19:35.986Z,2.33
2023-01-28T06:22:02.571Z,2.30
2023-01-28T06:24:29.123Z,2.35
2023-01-28T06:26:56.160Z,2.38
2023-01-28T06:29:23.530Z,2.43
2023-01-28T06:31:51.246Z,2.48
2023-01-28T06:34:18.047Z,2.40
2023-01-28T06:36:45.062Z,2.38
2023-01-28T06:39:11.930Z,2.37
2023-01-28T06:41:38.407Z,2.35
2023-01-28T06:44:05.150Z,2.34
2023-01-28T06:46:31.736Z,2.39
2023-01-28T06:48:58.272Z,2.34
2023-01-28T06:51:24.815Z,2.37
2023-01-28T06:53:51.349Z,2.42
2023-01-28T06:56:18.122Z,2.42
2023-01-28T06:58:44.652Z,2.42
2023-01-28T07:01:11.114Z,2.37
2023-01-28T07:03:37.604Z,2.33
2023-01-28T07:06:04.737Z,2.30
2023-01-28T07:08:31.432Z,2.27
2023-01-28T07:10:58.233Z,2.27
2023-01-28T07:13:24.963Z,2.26
2023-01-28T07:15:51.730Z,2.30
2023-01-28T07:18:18.917Z,2.34
2023-01-28T07:20:45.903Z,2.38
2023-01-28T07:23:12.857Z,2.38
2023-01-28T07:25:39.386Z,2.35
2023-01-28T07:28:05.876Z,2.34
2023-01-28T07:30:32.617Z,2.35
2023-01-28T07:33:00.779Z,2.43
2023-01-28T07:35:27.439Z,2.42
2023-01-28T07:37:55.368Z,2.44
2023-01-28T07:40:22.428Z,2.44
2023-01-28T07:42:49.074Z,2.49
2023-01-28T07:45:16.472Z,2.49
2023-01-28T07:47:42.998Z,2.53
2023-01-28T07:50:11.209Z,2.52
2023-01-28T07:52:44.337Z,2.48
2023-01-28T07:55:15.571Z,2.49
2023-01-28T07:58:11.963Z,2.50
2023-01-28T08:00:39.202Z,2.51
2023-01-28T08:03:08.373Z,2.53
2023-01-28T08:05:41.551Z,2.57
2023-01-28T08:08:09.921Z,2.52
2023-01-28T08:10:37.145Z,2.49
2023-01-28T08:13:04.457Z,2.50
2023-01-28T08:15:34.081Z,2.40
2023-01-28T08:18:01.633Z,2.39
2023-01-28T08:20:29.493Z,2.39
2023-01-28T08:23:08.831Z,2.35
2023-01-28T08:25:36.111Z,2.40
2023-01-28T08:28:03.575Z,2.36
2023-01-28T08:30:30.208Z,2.18
2023-01-28T08:33:00.537Z,2.24
2023-01-28T08:35:28.787Z,2.30
2023-01-28T08:37:55.285Z,2.33
2023-01-28T08:40:22.530Z,2.35
2023-01-28T08:42:53.479Z,2.47
2023-01-28T08:45:27.637Z,2.51
2023-01-28T08:47:56.111Z,2.44
2023-01-28T08:50:24.794Z,2.27
2023-01-28T08:52:59.481Z,2.21
2023-01-28T08:55:27.432Z,2.27
2023-01-28T08:57:54.161Z,2.29
2023-01-28T09:00:21.932Z,2.39
2023-01-28T09:02:52.462Z,2.48
2023-01-28T09:05:20.129Z,2.47
2023-01-28T09:07:46.909Z,2.56
2023-01-28T09:10:14.223Z,2.59
2023-01-28T09:12:40.862Z,2.60
2023-01-28T09:15:08.431Z,2.58
2023-01-28T09:17:34.994Z,2.56
2023-01-28T09:20:01.631Z,2.73
2023-01-28T09:22:28.136Z,2.73
2023-01-28T09:24:54.628Z,2.78
2023-01-28T09:27:21.268Z,2.77
2023-01-28T09:29:47.825Z,2.67
2023-01-28T09:32:14.270Z,2.72
2023-01-28T09:34:40.972Z,2.78
2023-01-28T09:37:07.543Z,2.73
2023-01-28T09:39:34.461Z,2.81
2023-01-28T09:42:13.180Z,2.89
2023-01-28T09:45:06.085Z,2.87
2023-01-28T09:47:37.853Z,3.02
2023-01-28T09:50:27.429Z,2.88
2023-01-28T09:52:57.511Z,2.81
2023-01-28T09:55:46.242Z,2.88
2023-01-28T09:58:16.079Z,2.88
2023-01-28T10:01:05.237Z,2.88
2023-01-28T10:03:38.194Z,2.75
2023-01-28T10:06:26.765Z,2.70
2023-01-28T10:09:19.511Z,2.64
2023-01-28T10:12:19.548Z,2.55
2023-01-28T10:14:52.205Z,2.57
2023-01-28T10:17:42.680Z,2.44
2023-01-28T10:20:12.313Z,2.50
2023-01-28T10:22:45.535Z,2.63
2023-01-28T10:25:20.662Z,2.65
2023-01-28T10:27:49.275Z,2.72
2023-01-28T10:30:22.481Z,2.75
2023-01-28T10:33:05.815Z,2.70
2023-01-28T10:35:41.817Z,2.75
2023-01-28T10:38:13.492Z,2.78
2023-01-28T10:40:42.657Z,2.90
2023-01-28T10:43:09.703Z,2.96
2023-01-28T10:45:45.713Z,2.95
2023-01-28T10:48:21.317Z,2.71
2023-01-28T10:51:05.340Z,2.62
2023-01-28T10:53:43.677Z,2.75
2023-01-28T10:56:18.001Z,2.73
2023-01-28T10:59:04.429Z,2.55
2023-01-28T11:01:47.882Z,2.43
2023-01-28T11:04:30.270Z,2.28
2023-01-28T11:07:04.016Z,2.31
2023-01-28T11:09:35.952Z,2.30
2023-01-28T11:12:21.889Z,2.34
2023-01-28T11:14:52.380Z,2.32
2023-01-28T11:17:21.631Z,2.23
2023-01-28T11:19:48.718Z,2.26
2023-01-28T11:22:24.711Z,2.25
2023-01-28T11:24:51.393Z,2.16
2023-01-28T11:27:23.876Z,2.18
2023-01-28T11:29:57.263Z,2.28
2023-01-28T11:32:26.672Z,2.27
2023-01-28T11:34:57.365Z,2.18
2023-01-28T11:37:26.262Z,2.21
2023-01-28T11:40:21.567Z,2.23
2023-01-28T11:42:50.759Z,2.25
2023-01-28T11:45:22.694Z,2.34
2023-01-28T11:48:07.063Z,2.38
2023-01-28T11:50:59.993Z,2.38
2023-01-28T11:53:50.166Z,2.38
2023-01-28T11:56:33.756Z,2.26
2023-01-28T11:59:19.974Z,2.40
2023-01-28T12:02:01.655Z,2.45
2023-01-28T12:05:05.454Z,2.46
2023-01-28T12:07:34.670Z,2.53
2023-01-28T12:10:09.832Z,2.49
2023-01-28T12:12:51.672Z,2.42
2023-01-28T12:15:40.314Z,2.45
2023-01-28T12:18:31.968Z,2.56
2023-01-28T12:21:01.539Z,2.57
2023-01-28T12:23:51.022Z,2.71
2023-01-28T12:26:46.802Z,2.58
2023-01-28T12:29:41.444Z,2.72
2023-01-28T12:32:39.575Z,2.83
2023-01-28T12:35:07.875Z,2.88
2023-01-28T12:37:42.625Z,2.84
2023-01-28T12:40:33.699Z,3.02
2023-01-28T12:43:43.346Z,3.03
2023-01-28T12:46:17.893Z,3.07
2023-01-28T12:48:53.061Z,3.13
2023-01-28T12:51:38.456Z,2.91
2023-01-28T12:54:38.610Z,2.96
2023-01-28T12:57:05.251Z,3.02
2023-01-28T12:59:39.857Z,2.94
2023-01-28T13:02:22.005Z,2.96
2023-01-28T13:05:02.428Z,2.81
2023-01-28T13:07:38.013Z,2.88
2023-01-28T13:10:12.806Z,2.94
2023-01-28T13:12:41.502Z,2.97
2023-01-28T13:15:17.187Z,3.04
2023-01-28T13:18:00.318Z,3.07
2023-01-28T13:20:39.399Z,3.07
2023-01-28T13:23:26.041Z,3.02
2023-01-28T13:25:55.833Z,2.97
2023-01-28T13:28:31.580Z,2.99
2023-01-28T13:31:02.459Z,2.93
2023-01-28T13:33:33.056Z,2.92
2023-01-28T13:36:06.626Z,2.89
2023-01-28T13:38:34.137Z,2.93
2023-01-28T13:41:01.458Z,2.96
2023-01-28T13:43:34.119Z,3.00
2023-01-28T13:46:04.656Z,2.99
2023-01-28T13:48:38.741Z,2.94
2023-01-28T13:51:12.883Z,2.97
2023-01-28T13:53:49.296Z,2.95
2023-01-28T13:56:25.718Z,2.88
2023-01-28T13:59:23.916Z,2.93
2023-01-28T14:02:12.018Z,3.01
2023-01-28T14:04:45.293Z,2.94
2023-01-28T14:07:40.880Z,3.00
2023-01-28T14:10:38.701Z,3.03
2023-01-28T14:13:20.373Z,2.99
2023-01-28T14:15:50.726Z,3.03
2023-01-28T14:18:36.795Z,3.06
2023-01-28T14:21:11.213Z,3.03
2023-01-28T14:23:47.154Z,3.01
2023-01-28T14:26:44.580Z,2.90
2023-01-28T14:30:05.233Z,2.82
2023-01-28T14:32:33.446Z,2.77
2023-01-28T14:35:07.343Z,2.73
2023-01-28T14:37:34.017Z,2.74
2023-01-28T14:40:04.336Z,2.74
2023-01-28T14:42:35.932Z,2.74
2023-01-28T14:45:11.563Z,2.72
2023-01-28T14:47:56.258Z,2.67
2023-01-28T14:51:03.076Z,2.67
2023-01-28T14:53:29.557Z,2.63
2023-01-28T14:55:59.148Z,2.60
2023-01-28T14:58:37.382Z,2.55
2023-01-28T15:01:03.999Z,2.54
2023-01-28T15:03:32.086Z,2.52
2023-01-28T15:06:05.868Z,2.51
2023-01-28T15:08:32.542Z,2.47
2023-01-28T15:11:01.777Z,2.46
2023-01-28T15:13:30.839Z,2.44
2023-01-28T15:16:00.925Z,2.48
2023-01-28T15:18:34.301Z,2.48
2023-01-28T15:21:02.098Z,2.46
2023-01-28T15:23:34.545Z,2.49
2023-01-28T15:26:06.534Z,2.48
2023-01-28T15:28:37.064Z,2.46
2023-01-28T15:31:04.203Z,2.39
2023-01-28T15:33:30.900Z,2.30
2023-01-28T15:35:58.929Z,2.28
2023-01-28T15:38:28.516Z,2.30
2023-01-28T15:40:59.487Z,2.25
2023-01-28T15:43:31.983Z,2.26
2023-01-28T15:46:00.147Z,2.26
2023-01-28T15:48:29.375Z,2.25
2023-01-28T15:51:04.942Z,2.19
2023-01-28T15:53:41.984Z,2.18
2023-01-28T15:56:13.505Z,2.10
2023-01-28T15:58:41.812Z,2.06
2023-01-28T16:01:08.496Z,2.02
2023-01-28T16:03:37.175Z,2.01
2023-01-28T16:06:09.736Z,1.97
2023-01-28T16:08:54.333Z,1.95
2023-01-28T16:11:28.663Z,1.96
2023-01-28T16:13:56.146Z,1.87
2023-01-28T16:16:32.240Z,1.89
2023-01-28T16:18:59.513Z,1.86
2023-01-28T16:21:33.801Z,1.86
2023-01-28T16:24:07.693Z,1.87
2023-01-28T16:26:36.107Z,1.88
2023-01-28T16:29:17.156Z,1.89
2023-01-28T16:31:43.914Z,1.89
2023-01-28T16:34:10.841Z,1.88
2023-01-28T16:36:37.608Z,1.88
2023-01-28T16:39:04.407Z,1.82
2023-01-28T16:41:35.212Z,1.75
2023-01-28T16:44:05.775Z,1.68
2023-01-28T16:46:36.056Z,1.64
2023-01-28T16:49:02.739Z,1.61
2023-01-28T16:51:29.653Z,1.60
2023-01-28T16:53:57.326Z,1.61
2023-01-28T16:59:16.328Z,1.72
2023-01-28T17:01:44.431Z,1.74
2023-01-28T17:04:12.796Z,1.77
2023-01-28T17:06:43.001Z,1.80
2023-01-28T17:09:11.842Z,1.79
2023-01-28T17:11:40.730Z,1.78
2023-01-28T17:14:07.976Z,1.79
2023-01-28T17:16:34.894Z,1.74
2023-01-28T17:19:01.797Z,1.74
2023-01-28T17:21:28.726Z,1.75
2023-01-28T17:23:56.535Z,1.75
2023-01-28T17:26:24.168Z,1.73
2023-01-28T17:28:54.201Z,1.73
2023-01-28T17:31:21.833Z,1.73
2023-01-28T17:33:54.337Z,1.70
2023-01-28T17:36:21.308Z,1.70
2023-01-28T17:38:48.682Z,1.65
2023-01-28T17:41:17.495Z,1.64
2023-01-28T17:43:49.729Z,1.53
2023-01-28T17:46:17.350Z,1.50
2023-01-28T17:48:45.859Z,1.44
2023-01-28T17:51:13.911Z,1.43
2023-01-28T17:53:45.919Z,1.42
2023-01-28T17:56:29.127Z,1.41
2023-01-28T17:59:02.793Z,1.39
2023-01-28T18:01:30.259Z,1.35
2023-01-28T18:03:58.824Z,1.35
2023-01-28T18:06:25.799Z,1.35
2023-01-28T18:08:52.406Z,1.28
2023-01-28T18:11:19.964Z,1.29
2023-01-28T18:13:47.139Z,1.29
2023-01-28T18:16:17.326Z,1.29
2023-01-28T18:18:45.188Z,1.32
2023-01-28T18:21:51.803Z,1.34
2023-01-28T18:24:19.828Z,1.33
2023-01-28T18:26:46.577Z,1.29
2023-01-28T18:29:17.059Z,1.28
2023-01-28T18:31:44.854Z,1.29
2023-01-28T18:34:11.721Z,1.31
2023-01-28T18:36:38.615Z,1.33
2023-01-28T18:39:12.644Z,1.33
2023-01-28T18:41:39.649Z,1.33
2023-01-28T18:44:08.217Z,1.32
2023-01-28T18:46:35.304Z,1.31
2023-01-28T18:49:04.185Z,1.32
2023-01-28T18:51:31.145Z,1.33
2023-01-28T18:54:04.006Z,1.25
2023-01-28T18:56:31.972Z,1.25
2023-01-28T18:59:00.930Z,1.26
2023-01-28T19:01:28.449Z,1.25
2023-01-28T19:03:57.117Z,1.25
2023-01-28T19:06:24.831Z,1.27
2023-01-28T19:08:57.964Z,1.23
2023-01-28T19:11:26.644Z,1.22
2023-01-28T19:13:53.883Z,1.20
2023-01-28T19:16:21.870Z,1.17
2023-01-28T19:18:57.519Z,1.15
2023-01-28T19:21:25.658Z,1.14
2023-01-28T19:24:01.823Z,1.13
2023-01-28T19:26:30.784Z,1.09
2023-01-28T19:28:58.064Z,1.09
2023-01-28T19:31:26.360Z,1.08
2023-01-28T19:33:56.826Z,1.05
2023-01-28T19:36:26.192Z,1.03
2023-01-28T19:38:56.584Z,1.00
2023-01-28T19:41:23.399Z,0.99
2023-01-28T19:43:50.190Z,1.00
2023-01-28T19:46:18.167Z,0.98
2023-01-28T19:48:45.554Z,0.94
2023-01-28T19:51:13.595Z,0.92
2023-01-28T19:53:41.892Z,0.91
2023-01-28T19:56:14.632Z,0.90
2023-01-28T19:58:43.668Z,0.89
2023-01-28T20:01:20.113Z,0.89
2023-01-28T20:03:51.282Z,0.88
2023-01-28T20:06:18.026Z,0.87
2023-01-28T20:08:45.747Z,0.85
2023-01-28T20:11:15.011Z,0.83
2023-01-28T20:13:44.267Z,0.84
2023-01-28T20:16:25.642Z,0.84
2023-01-28T20:18:58.209Z,0.85
2023-01-28T20:21:25.974Z,0.83
2023-01-28T20:23:54.854Z,0.81
2023-01-28T20:26:25.130Z,0.79
2023-01-28T20:28:52.135Z,0.75
2023-01-28T20:31:20.256Z,0.72
2023-01-28T20:33:47.326Z,0.72
2023-01-28T20:36:14.823Z,0.70
2023-01-28T20:38:44.080Z,0.71
2023-01-28T20:41:13.146Z,0.67
2023-01-28T20:43:41.597Z,0.66
2023-01-28T20:46:12.101Z,0.60
2023-01-28T20:48:38.850Z,0.60
2023-01-28T20:51:14.124Z,0.61
2023-01-28T20:53:41.844Z,0.61
2023-01-28T20:56:10.326Z,0.58
2023-01-28T20:58:37.117Z,0.57
2023-01-28T21:01:04.581Z,0.58
2023-01-28T21:03:31.589Z,0.57
2023-01-28T21:05:58.323Z,0.58
2023-01-28T21:08:24.939Z,0.60
2023-01-28T21:10:51.466Z,0.60
2023-01-28T21:13:18.294Z,0.61
2023-01-28T21:15:55.956Z,0.59
2023-01-28T21:18:23.118Z,0.59
2023-01-28T21:20:50.334Z,0.57
2023-01-28T21:23:17.121Z,0.52
2023-01-28T21:25:47.063Z,0.48
2023-01-28T21:28:14.254Z,0.47
2023-01-28T21:30:40.916Z,0.48
2023-01-28T21:33:08.074Z,0.46
2023-01-28T21:35:39.669Z,0.41
2023-01-28T21:38:06.641Z,0.43
2023-01-28T21:40:34.645Z,0.38
2023-01-28T21:43:01.802Z,0.39
2023-01-28T21:45:28.877Z,0.38
2023-01-28T21:47:55.780Z,0.39
2023-01-28T21:50:23.077Z,0.39
2023-01-28T21:52:50.570Z,0.40
2023-01-28T21:55:17.961Z,0.33
2023-01-28T21:57:46.428Z,0.26
2023-01-28T22:00:13.387Z,0.23
2023-01-28T22:02:40.766Z,0.26
2023-01-28T22:05:07.753Z,0.23
2023-01-28T22:07:36.704Z,0.23
2023-01-28T22:10:03.487Z,0.25
2023-01-28T22:12:30.359Z,0.28
2023-01-28T22:14:57.005Z,0.24
2023-01-28T22:17:25.930Z,0.23
2023-01-28T22:19:57.044Z,0.26
2023-01-28T22:22:24.388Z,0.29
2023-01-28T22:24:51.601Z,0.30
2023-01-28T22:27:18.261Z,0.29
2023-01-28T22:29:44.867Z,0.29
2023-01-28T22:32:11.441Z,0.28
2023-01-28T22:34:38.074Z,0.26
2023-01-28T22:37:07.451Z,0.21
2023-01-28T22:40:34.137Z,0.19
2023-01-28T22:43:00.973Z,0.15
2023-01-28T22:45:27.709Z,0.13
2023-01-28T22:47:54.421Z,0.13
2023-01-28T22:50:21.818Z,0.06
2023-01-28T22:52:48.873Z,0.05
2023-01-28T22:55:15.808Z,0.06
2023-01-28T22:57:42.394Z,0.05
2023-01-28T23:00:12.412Z,0.05
2023-01-28T23:02:39.132Z,0.05
2023-01-28T23:05:06.693Z,0.04
2023-01-28T23:07:33.313Z,0.03
2023-01-28T23:09:59.827Z,0.03
2023-01-28T23:12:26.423Z,0.00
2023-01-28T23:15:11.359Z,0.00
2023-01-28T23:17:56.620Z,-0.10
2023-01-28T23:20:41.584Z,-0.08
2023-01-28T23:23:34.687Z,-0.06
2023-01-28T23:26:01.254Z,-0.05
2023-01-28T23:28:28.041Z,-0.11
2023-01-28T23:30:54.850Z,-0.17
2023-01-28T23:33:21.493Z,-0.16
2023-01-28T23:35:48.017Z,-0.13
2023-01-28T23:38:15.153Z,-0.12
2023-01-28T23:40:41.797Z,-0.11
2023-01-28T23:43:08.318Z,-0.13
2023-01-28T23:45:34.820Z,-0.17
2023-01-28T23:48:01.540Z,-0.24
2023-01-28T23:50:28.066Z,-0.24
2023-01-28T23:52:54.527Z,-0.24
2023-01-28T23:55:21.063Z,-0.25
2023-01-28T23:57:48.058Z,-0.27
